HTIR/IRI METAR and TAF weather

Enter ICAO airport designator
Station Type Date Time Source
HTIR METAR 2021/05/10 23:00 UTC NOAA

HTIR 102300Z 18010KT 9999 FEW019 18/11 Q1021


Station Type Date Time Source
HTIR Decoded METAR 2021/05/10 23:00 UTC NOAA

Iringa, Tanzania (HTIR) 07-40S 035-45E 1428M
May 10, 2021 - 07:00 PM EDT / 2021.05.10 2300 UTC
Wind: from the S (180 degrees) at 12 MPH (10 KT):0
Visibility: greater than 7 mile(s):0
Sky conditions: mostly clear
Temperature: 64 F (18 C)
Dew Point: 51 F (11 C)
Relative Humidity: 63%
Pressure (altimeter): 30.15 in. Hg (1021 hPa)
ob: HTIR 102300Z 18010KT 9999 FEW019 18/11 Q1021
cycle: 23

Station Type Date Time Source
HTIR TAF UTC NOAA

Error!

Example: see airport list